Sisseton, South Dakota
Current Conditions -  °F | °C
As of 5:56 PM on Friday 24 Oct 2014 (Local Time) from KETH Reporting Station
Clear Clear  
Wind Chill: 70°   Ceiling: Unl
Heat Index: 70°   Visibility: 10mi
Dew Point: 43°   Wind: 7mph
Humidity: 38%   Direction: 250°WSW
Pressure: 29.85"   Gusts: NA
Location:  45.66°N, 97.05°W
Report Text: KETH 242256Z AUTO 25006KT 10SM CLR 21/06 A2985 RMK AO2
Loading
Personal Weather Stations






























Interactive Weather Map
Tropical Storm Tracking
New forecast layout! Learn more

10-Day Weather Forecast

Advertisements
Track Severe Weather on mobile